Andrew K — WDF8044 — position and weather

sailwx.info

Track history (hours):
 
Tides and Currents Weather Stations Pressure Air Temp Water Temp Dewpoint Dewpoint Depression Visibility Wind Speed Wind Dir Waves Ship Positions

Andrew K

Owner: G & H Towing Company, Galveston, TX. More information available from US FCC via Universal Licensing System and Coast Guard Vessel Documentation Center.

Last reported at 2018-Jun-22 14:30 UTC. Time now 2018-Jun-22 15:22 UTC.
Position N 29°22' W 094°53'.

Length 27 m; draft 4.6 m.

Type: Tug. MMSI: 367490790.

Date/timePositionNaut miles runAvg speedWind from/ knotsBaromVisibWave heightAir tempDewpointWater temp
2018-Jun-22 14:30N 29°22' W 094°53'1 1.4
2018-Jun-22 13:37N 29°22' W 094°55'0 2.7
2018-Jun-22 13:30N 29°22' W 094°55'1 2.8
2018-Jun-22 12:59N 29°23' W 094°53'4 8.3
2018-Jun-22 12:30N 29°22' W 094°49'3 2.4
2018-Jun-22 11:22N 29°19' W 094°47'2 6.1
2018-Jun-22 10:58N 29°21' W 094°48'5 7.9
2018-Jun-22 10:23N 29°22' W 094°53'1 0.8
2018-Jun-22 09:37N 29°22' W 094°54'1 6.6
2018-Jun-22 09:30N 29°22' W 094°53'1 0.2
2018-Jun-22 04:55N 29°23' W 094°53'0 0.3
2018-Jun-22 04:28N 29°23' W 094°54'0 0.9
2018-Jun-22 04:00N 29°23' W 094°53'3 5.7
2018-Jun-22 03:30N 29°22' W 094°50'3 5.5
2018-Jun-22 02:55N 29°21' W 094°47'0 0.5
2018-Jun-22 02:24N 29°21' W 094°47'2 3.4
2018-Jun-22 01:52N 29°19' W 094°47'0 0.0
2018-Jun-22 01:22N 29°19' W 094°47'0 0.0
2018-Jun-22 00:58N 29°19' W 094°47'0 0.0
2018-Jun-22 00:28N 29°19' W 094°47'0 0.0
2018-Jun-21 23:58N 29°19' W 094°47'0 0.0
2018-Jun-21 23:22N 29°19' W 094°47'0 0.0
2018-Jun-21 22:55N 29°19' W 094°47'0 0.0
2018-Jun-21 22:28N 29°19' W 094°47'1 3.0
2018-Jun-21 22:00N 29°20' W 094°46'1 2.7
2018-Jun-21 21:27N 29°19' W 094°47'0 0.0
2018-Jun-21 21:00N 29°19' W 094°47'0 0.0
2018-Jun-21 20:30N 29°19' W 094°47'0 0.0
2018-Jun-21 19:51N 29°19' W 094°47'0 0.0
2018-Jun-21 19:27N 29°19' W 094°47'0 0.0
2018-Jun-21 19:00N 29°19' W 094°47'0 0.0
2018-Jun-21 18:30N 29°19' W 094°47'0 0.0
2018-Jun-21 18:00N 29°19' W 094°47'3 5.5
2018-Jun-21 17:30N 29°22' W 094°48'4 3.9
2018-Jun-21 16:22N 29°22' W 094°53'2 4.7
2018-Jun-21 16:00N 29°23' W 094°51'5 0.5
2018-Jun-21 06:29N 29°19' W 094°48'1 1.9
2018-Jun-21 05:58N 29°18' W 094°49'0 0.5
2018-Jun-21 05:30N 29°19' W 094°49'2 4.2
2018-Jun-21 05:00N 29°20' W 094°47'5 9.8
2018-Jun-21 04:29N 29°22' W 094°51'2 0.7
2018-Jun-21 01:48N 29°23' W 094°54'3 8.8
2018-Jun-21 01:30N 29°22' W 094°50'4 6.9
2018-Jun-21 00:53N 29°19' W 094°47'0 0.1
2018-Jun-21 00:28N 29°19' W 094°47'0 0.0
2018-Jun-20 23:55N 29°19' W 094°47'0 0.0
2018-Jun-20 23:07N 29°19' W 094°47'0 0.0
2018-Jun-20 22:55N 29°19' W 094°47'0 0.0
2018-Jun-20 22:25N 29°19' W 094°47'0 0.0
2018-Jun-20 21:55N 29°19' W 094°47'0 0.0
2018-Jun-20 21:28N 29°19' W 094°47'0 0.0
2018-Jun-20 20:55N 29°19' W 094°47'0 0.0
2018-Jun-20 18:57N 29°19' W 094°47'2 3.3
2018-Jun-20 18:27N 29°21' W 094°47'2 1.2
2018-Jun-20 16:55N 29°19' W 094°47'7 0.5
2018-Jun-20 03:06N 29°23' W 094°54'0 2.3
2018-Jun-20 02:57N 29°23' W 094°53'3 4.7
2018-Jun-20 02:24N 29°22' W 094°50'3 7.7
2018-Jun-20 01:59N 29°21' W 094°47'3 5.6
2018-Jun-20 01:30N 29°19' W 094°48'1 1.7
2018-Jun-20 00:59N 29°18' W 094°49'1 1.1
2018-Jun-20 00:21N 29°19' W 094°49'1 4.3
2018-Jun-20 00:00N 29°19' W 094°47'0 0.1
2018-Jun-19 21:55N 29°19' W 094°47'2 3.8
2018-Jun-19 21:29N 29°19' W 094°49'0 0.4
2018-Jun-19 21:00N 29°19' W 094°49'0 0.1
2018-Jun-19 18:37N 29°19' W 094°48'1 5.9
2018-Jun-19 18:29N 29°19' W 094°49'0 0.4
2018-Jun-19 18:01N 29°18' W 094°49'1 2.4
2018-Jun-19 17:30N 29°19' W 094°48'1 0.5
2018-Jun-19 15:40N 29°19' W 094°47'0 1.3
2018-Jun-19 15:30N 29°19' W 094°47'1 2.2
2018-Jun-19 14:58N 29°20' W 094°46'1 1.2
2018-Jun-19 14:07N 29°19' W 094°47'1 7.3
2018-Jun-19 13:58N 29°19' W 094°48'0 0.8
2018-Jun-19 13:30N 29°19' W 094°48'1 1.9
2018-Jun-19 13:00N 29°19' W 094°47'0 0.0
2018-Jun-18 02:43N 29°19' W 094°47'1 6.4
2018-Jun-18 02:30N 29°19' W 094°49'1 2.5
2018-Jun-18 02:00N 29°19' W 094°47'0 0.1
2018-Jun-17 23:31N 29°19' W 094°47'1 0.1
2018-Jun-17 16:59N 29°19' W 094°48'1 2.0
2018-Jun-17 16:30N 29°19' W 094°49'0 0.1
2018-Jun-17 16:01N 29°19' W 094°49'1 2.7
2018-Jun-17 15:30N 29°19' W 094°47'1 0.6
2018-Jun-17 13:51N 29°19' W 094°48'0 0.9
2018-Jun-17 13:26N 29°19' W 094°48'1 0.1
2018-Jun-16 20:38N 29°19' W 094°47'1 6.9
2018-Jun-16 20:30N 29°19' W 094°48'1 0.9
2018-Jun-16 19:37N 29°19' W 094°49'0 2.3
2018-Jun-16 19:25N 29°19' W 094°48'1 3.1
2018-Jun-16 19:00N 29°19' W 094°47'0 0.0
2018-Jun-16 15:12N 29°19' W 094°47'2 7.6
2018-Jun-16 14:58N 29°21' W 094°46'3 3.1
2018-Jun-16 14:05N 29°21' W 094°43'1 7.9
2018-Jun-16 13:56N 29°21' W 094°44'3 7.2
2018-Jun-16 13:30N 29°19' W 094°47'0 0.0
2018-Jun-16 01:13N 29°19' W 094°47'1 5.9
2018-Jun-16 01:00N 29°19' W 094°48'0 0.4
2018-Jun-16 00:30N 29°18' W 094°49'2 3.0
2018-Jun-16 00:00N 29°19' W 094°47'2 1.6
2018-Jun-15 23:02N 29°19' W 094°49'0 8.6
2018-Jun-15 22:59N 29°19' W 094°48'1 1.1
2018-Jun-15 22:03N 29°19' W 094°47'0 0.0
2018-Jun-15 21:40N 29°19' W 094°47'1 6.5
2018-Jun-15 21:30N 29°20' W 094°47'4 9.0
2018-Jun-15 21:00N 29°22' W 094°51'2 0.3
2018-Jun-15 13:27N 29°23' W 094°53'1 2.5
2018-Jun-15 12:56N 29°23' W 094°52'1 0.2
2018-Jun-15 06:44N 29°23' W 094°54'1 4.1
2018-Jun-15 06:29N 29°22' W 094°54'1 1.1
2018-Jun-15 05:54N 29°22' W 094°55'1 3.6
2018-Jun-15 05:29N 29°22' W 094°53'0 0.0
2018-Jun-14 19:34N 29°22' W 094°54'0 1.5
2018-Jun-14 19:27N 29°22' W 094°54'0 0.1
2018-Jun-14 18:59N 29°22' W 094°54'0 1.0
2018-Jun-14 18:30N 29°22' W 094°53'1 0.1
2018-Jun-14 13:56N 29°23' W 094°54'0 0.5
2018-Jun-14 13:30N 29°22' W 094°53'0 0.1
2018-Jun-14 12:12N 29°23' W 094°53'1 0.1
2018-Jun-14 07:47N 29°22' W 094°53'1 0.2
2018-Jun-14 04:17N 29°23' W 094°53'1 4.8
2018-Jun-14 04:00N 29°23' W 094°52'4 8.4
2018-Jun-14 03:30N 29°21' W 094°47'2 1.1
2018-Jun-14 01:44N 29°19' W 094°47'0 0.0
2018-Jun-13 19:31N 29°19' W 094°47'0 0.2
2018-Jun-13 19:30N 29°19' W 094°47'2 3.6
2018-Jun-13 18:59N 29°19' W 094°49'1 2.8
2018-Jun-13 18:30N 29°19' W 094°48'1 1.2
2018-Jun-13 17:57N 29°19' W 094°47'0 0.0
2018-Jun-13 17:30N 29°19' W 094°47'0 0.0
2018-Jun-13 17:00N 29°19' W 094°47'0 0.0
2018-Jun-13 16:30N 29°19' W 094°47'0 0.0
2018-Jun-13 15:54N 29°19' W 094°47'0 0.0
2018-Jun-13 15:30N 29°19' W 094°47'1 1.2
2018-Jun-13 14:57N 29°19' W 094°48'0 0.4
2018-Jun-13 14:29N 29°19' W 094°48'0 0.3
2018-Jun-13 14:00N 29°19' W 094°48'0 0.4
2018-Jun-13 13:30N 29°19' W 094°48'0 0.0
2018-Jun-13 13:00N 29°19' W 094°48'1 1.3
2018-Jun-13 12:31N 29°19' W 094°47'0 0.0
2018-Jun-13 10:49N 29°19' W 094°47'0 0.0
2018-Jun-13 10:13N 29°19' W 094°47'0 0.0
2018-Jun-13 09:55N 29°19' W 094°47'0 0.0
2018-Jun-13 09:30N 29°19' W 094°47'3 5.5
2018-Jun-13 08:55N 29°22' W 094°49'4 7.6
2018-Jun-13 08:27N 29°22' W 094°53'0 0.1
2018-Jun-13 07:50N 29°22' W 094°53'2 6.9
2018-Jun-13 07:30N 29°22' W 094°51'4 1.9
2018-Jun-13 05:10N 29°19' W 094°48'1 3.3
2018-Jun-13 04:59N 29°18' W 094°49'1 2.5
2018-Jun-13 04:29N 29°19' W 094°47'  
Track history (hours):
 
Tides and Currents Weather Stations Pressure Air Temp Water Temp Dewpoint Dewpoint Depression Visibility Wind Speed Wind Dir Waves Ship Positions

Andrew K

Owner: G & H Towing Company, Galveston, TX. More information available from US FCC via Universal Licensing System and Coast Guard Vessel Documentation Center.

Last reported at 2018-Jun-22 14:30 UTC. Time now 2018-Jun-22 15:22 UTC.
Position N 29°22' W 094°53'.

Length 27 m; draft 4.6 m.

Type: Tug. MMSI: 367490790.

Date/timePositionNaut miles runAvg speedWind from/ knotsBaromVisibWave heightAir tempDewpointWater temp
2018-Jun-22 14:30N 29°22' W 094°53'1 1.4
2018-Jun-22 13:37N 29°22' W 094°55'0 2.7
2018-Jun-22 13:30N 29°22' W 094°55'1 2.8
2018-Jun-22 12:59N 29°23' W 094°53'4 8.3
2018-Jun-22 12:30N 29°22' W 094°49'3 2.4
2018-Jun-22 11:22N 29°19' W 094°47'2 6.1
2018-Jun-22 10:58N 29°21' W 094°48'5 7.9
2018-Jun-22 10:23N 29°22' W 094°53'1 0.8
2018-Jun-22 09:37N 29°22' W 094°54'1 6.6
2018-Jun-22 09:30N 29°22' W 094°53'1 0.2
2018-Jun-22 04:55N 29°23' W 094°53'0 0.3
2018-Jun-22 04:28N 29°23' W 094°54'0 0.9
2018-Jun-22 04:00N 29°23' W 094°53'3 5.7
2018-Jun-22 03:30N 29°22' W 094°50'3 5.5
2018-Jun-22 02:55N 29°21' W 094°47'0 0.5
2018-Jun-22 02:24N 29°21' W 094°47'2 3.4
2018-Jun-22 01:52N 29°19' W 094°47'0 0.0
2018-Jun-22 01:22N 29°19' W 094°47'0 0.0
2018-Jun-22 00:58N 29°19' W 094°47'0 0.0
2018-Jun-22 00:28N 29°19' W 094°47'0 0.0
2018-Jun-21 23:58N 29°19' W 094°47'0 0.0
2018-Jun-21 23:22N 29°19' W 094°47'0 0.0
2018-Jun-21 22:55N 29°19' W 094°47'0 0.0
2018-Jun-21 22:28N 29°19' W 094°47'1 3.0
2018-Jun-21 22:00N 29°20' W 094°46'1 2.7
2018-Jun-21 21:27N 29°19' W 094°47'0 0.0
2018-Jun-21 21:00N 29°19' W 094°47'0 0.0
2018-Jun-21 20:30N 29°19' W 094°47'0 0.0
2018-Jun-21 19:51N 29°19' W 094°47'0 0.0
2018-Jun-21 19:27N 29°19' W 094°47'0 0.0
2018-Jun-21 19:00N 29°19' W 094°47'0 0.0
2018-Jun-21 18:30N 29°19' W 094°47'0 0.0
2018-Jun-21 18:00N 29°19' W 094°47'3 5.5
2018-Jun-21 17:30N 29°22' W 094°48'4 3.9
2018-Jun-21 16:22N 29°22' W 094°53'2 4.7
2018-Jun-21 16:00N 29°23' W 094°51'5 0.5
2018-Jun-21 06:29N 29°19' W 094°48'1 1.9
2018-Jun-21 05:58N 29°18' W 094°49'0 0.5
2018-Jun-21 05:30N 29°19' W 094°49'2 4.2
2018-Jun-21 05:00N 29°20' W 094°47'5 9.8
2018-Jun-21 04:29N 29°22' W 094°51'2 0.7
2018-Jun-21 01:48N 29°23' W 094°54'3 8.8
2018-Jun-21 01:30N 29°22' W 094°50'4 6.9
2018-Jun-21 00:53N 29°19' W 094°47'0 0.1
2018-Jun-21 00:28N 29°19' W 094°47'0 0.0
2018-Jun-20 23:55N 29°19' W 094°47'0 0.0
2018-Jun-20 23:07N 29°19' W 094°47'0 0.0
2018-Jun-20 22:55N 29°19' W 094°47'0 0.0
2018-Jun-20 22:25N 29°19' W 094°47'0 0.0
2018-Jun-20 21:55N 29°19' W 094°47'0 0.0
2018-Jun-20 21:28N 29°19' W 094°47'0 0.0
2018-Jun-20 20:55N 29°19' W 094°47'0 0.0
2018-Jun-20 18:57N 29°19' W 094°47'2 3.3
2018-Jun-20 18:27N 29°21' W 094°47'2 1.2
2018-Jun-20 16:55N 29°19' W 094°47'7 0.5
2018-Jun-20 03:06N 29°23' W 094°54'0 2.3
2018-Jun-20 02:57N 29°23' W 094°53'3 4.7
2018-Jun-20 02:24N 29°22' W 094°50'3 7.7
2018-Jun-20 01:59N 29°21' W 094°47'3 5.6
2018-Jun-20 01:30N 29°19' W 094°48'1 1.7
2018-Jun-20 00:59N 29°18' W 094°49'1 1.1
2018-Jun-20 00:21N 29°19' W 094°49'1 4.3
2018-Jun-20 00:00N 29°19' W 094°47'0 0.1
2018-Jun-19 21:55N 29°19' W 094°47'2 3.8
2018-Jun-19 21:29N 29°19' W 094°49'0 0.4
2018-Jun-19 21:00N 29°19' W 094°49'0 0.1
2018-Jun-19 18:37N 29°19' W 094°48'1 5.9
2018-Jun-19 18:29N 29°19' W 094°49'0 0.4
2018-Jun-19 18:01N 29°18' W 094°49'1 2.4
2018-Jun-19 17:30N 29°19' W 094°48'1 0.5
2018-Jun-19 15:40N 29°19' W 094°47'0 1.3
2018-Jun-19 15:30N 29°19' W 094°47'1 2.2
2018-Jun-19 14:58N 29°20' W 094°46'1 1.2
2018-Jun-19 14:07N 29°19' W 094°47'1 7.3
2018-Jun-19 13:58N 29°19' W 094°48'0 0.8
2018-Jun-19 13:30N 29°19' W 094°48'1 1.9
2018-Jun-19 13:00N 29°19' W 094°47'0 0.0
2018-Jun-18 02:43N 29°19' W 094°47'1 6.4
2018-Jun-18 02:30N 29°19' W 094°49'1 2.5
2018-Jun-18 02:00N 29°19' W 094°47'0 0.1
2018-Jun-17 23:31N 29°19' W 094°47'1 0.1
2018-Jun-17 16:59N 29°19' W 094°48'1 2.0
2018-Jun-17 16:30N 29°19' W 094°49'0 0.1
2018-Jun-17 16:01N 29°19' W 094°49'1 2.7
2018-Jun-17 15:30N 29°19' W 094°47'1 0.6
2018-Jun-17 13:51N 29°19' W 094°48'0 0.9
2018-Jun-17 13:26N 29°19' W 094°48'1 0.1
2018-Jun-16 20:38N 29°19' W 094°47'1 6.9
2018-Jun-16 20:30N 29°19' W 094°48'1 0.9
2018-Jun-16 19:37N 29°19' W 094°49'0 2.3
2018-Jun-16 19:25N 29°19' W 094°48'1 3.1
2018-Jun-16 19:00N 29°19' W 094°47'0 0.0
2018-Jun-16 15:12N 29°19' W 094°47'2 7.6
2018-Jun-16 14:58N 29°21' W 094°46'3 3.1
2018-Jun-16 14:05N 29°21' W 094°43'1 7.9
2018-Jun-16 13:56N 29°21' W 094°44'3 7.2
2018-Jun-16 13:30N 29°19' W 094°47'0 0.0
2018-Jun-16 01:13N 29°19' W 094°47'1 5.9
2018-Jun-16 01:00N 29°19' W 094°48'0 0.4
2018-Jun-16 00:30N 29°18' W 094°49'2 3.0
2018-Jun-16 00:00N 29°19' W 094°47'2 1.6
2018-Jun-15 23:02N 29°19' W 094°49'0 8.6
2018-Jun-15 22:59N 29°19' W 094°48'1 1.1
2018-Jun-15 22:03N 29°19' W 094°47'0 0.0
2018-Jun-15 21:40N 29°19' W 094°47'1 6.5
2018-Jun-15 21:30N 29°20' W 094°47'4 9.0
2018-Jun-15 21:00N 29°22' W 094°51'2 0.3
2018-Jun-15 13:27N 29°23' W 094°53'1 2.5
2018-Jun-15 12:56N 29°23' W 094°52'1 0.2
2018-Jun-15 06:44N 29°23' W 094°54'1 4.1
2018-Jun-15 06:29N 29°22' W 094°54'1 1.1
2018-Jun-15 05:54N 29°22' W 094°55'1 3.6
2018-Jun-15 05:29N 29°22' W 094°53'0 0.0
2018-Jun-14 19:34N 29°22' W 094°54'0 1.5
2018-Jun-14 19:27N 29°22' W 094°54'0 0.1
2018-Jun-14 18:59N 29°22' W 094°54'0 1.0
2018-Jun-14 18:30N 29°22' W 094°53'1 0.1
2018-Jun-14 13:56N 29°23' W 094°54'0 0.5
2018-Jun-14 13:30N 29°22' W 094°53'0 0.1
2018-Jun-14 12:12N 29°23' W 094°53'1 0.1
2018-Jun-14 07:47N 29°22' W 094°53'1 0.2
2018-Jun-14 04:17N 29°23' W 094°53'1 4.8
2018-Jun-14 04:00N 29°23' W 094°52'4 8.4
2018-Jun-14 03:30N 29°21' W 094°47'2 1.1
2018-Jun-14 01:44N 29°19' W 094°47'0 0.0
2018-Jun-13 19:31N 29°19' W 094°47'0 0.2
2018-Jun-13 19:30N 29°19' W 094°47'2 3.6
2018-Jun-13 18:59N 29°19' W 094°49'1 2.8
2018-Jun-13 18:30N 29°19' W 094°48'1 1.2
2018-Jun-13 17:57N 29°19' W 094°47'0 0.0
2018-Jun-13 17:30N 29°19' W 094°47'0 0.0
2018-Jun-13 17:00N 29°19' W 094°47'0 0.0
2018-Jun-13 16:30N 29°19' W 094°47'0 0.0
2018-Jun-13 15:54N 29°19' W 094°47'0 0.0
2018-Jun-13 15:30N 29°19' W 094°47'1 1.2
2018-Jun-13 14:57N 29°19' W 094°48'0 0.4
2018-Jun-13 14:29N 29°19' W 094°48'0 0.3
2018-Jun-13 14:00N 29°19' W 094°48'0 0.4
2018-Jun-13 13:30N 29°19' W 094°48'0 0.0
2018-Jun-13 13:00N 29°19' W 094°48'1 1.3
2018-Jun-13 12:31N 29°19' W 094°47'0 0.0
2018-Jun-13 10:49N 29°19' W 094°47'0 0.0
2018-Jun-13 10:13N 29°19' W 094°47'0 0.0
2018-Jun-13 09:55N 29°19' W 094°47'0 0.0
2018-Jun-13 09:30N 29°19' W 094°47'3 5.5
2018-Jun-13 08:55N 29°22' W 094°49'4 7.6
2018-Jun-13 08:27N 29°22' W 094°53'0 0.1
2018-Jun-13 07:50N 29°22' W 094°53'2 6.9
2018-Jun-13 07:30N 29°22' W 094°51'4 1.9
2018-Jun-13 05:10N 29°19' W 094°48'1 3.3
2018-Jun-13 04:59N 29°18' W 094°49'1 2.5
2018-Jun-13 04:29N 29°19' W 094°47'  

Dump ship's entire track history